Time;durP1;ratioP1;P1;durP2;ratioP2;P2;SDS_P1;SDS_P2;PMS_P1;PMS_P2;Temp;Humidity;BMP_temperature;BMP_pressure;BME280_temperature;BME280_humidity;BME280_pressure;Samples;Min_cycle;Max_cycle;Signal;HPM_P1;HPM_P2
2020/12/17 00:00:29;;;;;;;13.48;7.75;;;;;;;3.71;71.96;101611.47;1766526;79;21142;-44
2020/12/17 00:02:56;;;;;;;14.40;8.13;;;;;;;3.72;71.98;101609.70;1765511;80;21145;-44
2020/12/17 00:05:24;;;;;;;12.65;8.28;;;;;;;3.72;72.02;101613.20;1766168;79;21622;-39
2020/12/17 00:07:51;;;;;;;12.13;8.35;;;;;;;3.73;72.04;101610.11;1767524;80;21842;-40
2020/12/17 00:10:19;;;;;;;13.75;8.10;;;;;;;3.73;72.07;101609.69;1768598;79;21145;-41
2020/12/17 00:12:47;;;;;;;11.45;7.45;;;;;;;3.75;72.04;101605.69;1767330;80;21141;-42
2020/12/17 00:15:17;;;;;;;12.33;8.03;;;;;;;3.78;71.98;101606.55;1766153;79;21157;-41
2020/12/17 00:17:53;;;;;;;13.38;7.67;;;;;;;3.80;71.95;101603.88;1768197;80;21138;-41
2020/12/17 00:20:23;;;;;;;11.00;7.40;;;;;;;3.82;71.92;101606.05;1762918;80;21146;-41
2020/12/17 00:22:51;;;;;;;13.38;8.25;;;;;;;3.80;71.87;101601.23;1768812;80;21641;-40
2020/12/17 00:25:19;;;;;;;10.80;7.75;;;;;;;3.80;71.92;101598.59;1758551;80;21174;-40
2020/12/17 00:27:47;;;;;;;12.58;7.10;;;;;;;3.79;71.95;101590.27;1769423;80;21146;-40
2020/12/17 00:30:16;;;;;;;15.75;8.63;;;;;;;3.79;71.93;101595.09;1764619;80;21141;-39
2020/12/17 00:32:46;;;;;;;13.40;8.85;;;;;;;3.80;71.92;101591.55;1767104;80;21153;-39
2020/12/17 00:35:14;;;;;;;15.33;8.53;;;;;;;3.78;71.98;101593.35;1765173;79;21134;-39
2020/12/17 00:37:42;;;;;;;12.65;7.97;;;;;;;3.79;72.01;101594.22;1768784;80;21169;-40
2020/12/17 00:40:12;;;;;;;13.35;8.28;;;;;;;3.79;72.00;101591.58;1763561;79;21153;-43
2020/12/17 00:42:44;;;;;;;11.38;7.53;;;;;;;3.80;71.99;101591.55;1699435;82;21154;-39
2020/12/17 00:45:12;;;;;;;12.65;7.70;;;;;;;3.79;71.97;101593.77;1762348;79;21459;-42
2020/12/17 00:47:40;;;;;;;12.80;8.03;;;;;;;3.80;71.97;101588.03;1769126;79;21641;-40
2020/12/17 00:50:09;;;;;;;13.72;8.50;;;;;;;3.82;71.99;101588.44;1764424;79;21158;-43
2020/12/17 00:52:41;;;;;;;12.60;9.28;;;;;;;3.85;71.95;101591.03;1763353;80;21103;-40
2020/12/17 00:55:10;;;;;;;12.98;8.25;;;;;;;3.87;71.88;101585.75;1724958;81;21200;-42
2020/12/17 00:57:37;;;;;;;12.47;8.28;;;;;;;3.88;71.87;101591.02;1765826;80;21134;-41
2020/12/17 01:00:06;;;;;;;16.02;10.18;;;;;;;3.88;71.86;101588.80;1765573;80;21169;-38
2020/12/17 01:02:34;;;;;;;19.57;11.83;;;;;;;3.86;71.85;101588.84;1764000;80;21153;-39
2020/12/17 01:05:04;;;;;;;15.00;9.68;;;;;;;3.85;71.88;101592.81;1766904;79;21146;-42
2020/12/17 01:07:32;;;;;;;13.00;8.45;;;;;;;3.86;71.90;101591.94;1766029;80;21182;-40
2020/12/17 01:09:59;;;;;;;16.87;9.33;;;;;;;3.87;71.89;101594.53;1767562;79;21137;-41
2020/12/17 01:12:27;;;;;;;14.10;8.50;;;;;;;3.88;71.83;101591.02;1765930;79;21172;-39
2020/12/17 01:14:54;;;;;;;15.88;8.63;;;;;;;3.89;71.80;101590.11;1765569;79;21139;-43
2020/12/17 01:17:22;;;;;;;15.05;9.25;;;;;;;3.90;71.77;101591.84;1767330;79;21134;-40
2020/12/17 01:19:50;;;;;;;14.53;8.58;;;;;;;3.88;71.73;101587.06;1698357;82;21559;-39
2020/12/17 01:22:18;;;;;;;10.93;7.40;;;;;;;3.89;71.78;101585.29;1769622;79;21143;-39
2020/12/17 01:24:46;;;;;;;12.47;8.25;;;;;;;3.88;71.77;101584.42;1698479;82;21190;-41
2020/12/17 01:27:13;;;;;;;10.63;7.10;;;;;;;3.88;71.75;101580.88;1763641;80;21142;-40
2020/12/17 01:29:42;;;;;;;12.65;7.85;;;;;;;3.89;71.79;101580.01;1766138;79;21457;-40
2020/12/17 01:32:10;;;;;;;12.10;8.30;;;;;;;3.89;71.79;101576.91;1766804;79;21111;-40
2020/12/17 01:34:38;;;;;;;10.30;6.85;;;;;;;3.89;71.77;101574.28;1767038;80;21122;-40
2020/12/17 01:37:07;;;;;;;13.45;7.17;;;;;;;3.90;71.77;101570.73;1763520;80;21130;-41
2020/12/17 01:39:35;;;;;;;11.85;7.35;;;;;;;3.89;71.74;101566.36;1698706;82;21158;-40
2020/12/17 01:42:03;;;;;;;9.23;5.87;;;;;;;3.89;71.74;101559.77;1681029;83;21182;-41
2020/12/17 01:44:30;;;;;;;8.90;6.40;;;;;;;3.88;71.74;101561.09;1701983;83;21682;-43
2020/12/17 01:46:58;;;;;;;10.70;7.10;;;;;;;3.87;71.74;101553.62;1766352;79;21130;-41
2020/12/17 01:49:26;;;;;;;9.48;6.75;;;;;;;3.89;71.76;101553.62;1766958;79;21150;-38
2020/12/17 01:51:54;;;;;;;12.75;8.60;;;;;;;3.90;71.70;101553.58;1766470;80;21150;-40
2020/12/17 01:54:22;;;;;;;12.85;8.18;;;;;;;3.91;71.70;101549.20;1699929;82;21166;-38
2020/12/17 01:56:56;;;;;;;13.85;9.78;;;;;;;3.90;71.66;101547.43;1764263;80;21613;-39
2020/12/17 01:59:25;;;;;;;17.12;10.38;;;;;;;3.89;71.66;101543.06;1723752;80;21148;-41
2020/12/17 02:01:53;;;;;;;14.63;9.73;;;;;;;3.88;71.68;101546.58;1766727;79;21297;-40
2020/12/17 02:04:24;;;;;;;12.33;8.45;;;;;;;3.88;71.69;101546.16;1764048;79;21646;-44
2020/12/17 02:06:51;;;;;;;11.68;7.10;;;;;;;3.89;71.61;101556.26;1700577;82;21166;-40
2020/12/17 02:09:19;;;;;;;13.38;8.95;;;;;;;3.89;71.63;101557.58;1765453;80;21134;-41
2020/12/17 02:11:53;;;;;;;15.45;9.20;;;;;;;3.90;71.54;101559.31;1767392;80;21574;-41
2020/12/17 02:14:22;;;;;;;11.00;7.28;;;;;;;3.91;71.55;101561.07;1767896;79;21602;-42
2020/12/17 02:16:50;;;;;;;12.65;7.60;;;;;;;3.93;71.49;101558.39;1764647;80;21139;-42
2020/12/17 02:19:18;;;;;;;11.12;7.05;;;;;;;3.90;71.43;101563.27;1691165;83;21110;-43
2020/12/17 02:21:46;;;;;;;11.83;7.25;;;;;;;3.87;71.44;101564.64;1716321;83;21118;-42
2020/12/17 02:24:15;;;;;;;17.37;8.05;;;;;;;3.84;71.52;101572.14;1765619;79;21103;-42
2020/12/17 02:26:43;;;;;;;11.85;7.65;;;;;;;3.82;71.55;101574.38;1767103;79;21131;-42
2020/12/17 02:29:10;;;;;;;12.47;7.17;;;;;;;3.84;71.52;101585.34;1765270;79;21138;-42
2020/12/17 02:31:38;;;;;;;10.40;6.60;;;;;;;3.84;71.53;101577.42;1705158;82;21163;-40
2020/12/17 02:34:05;;;;;;;11.53;7.95;;;;;;;3.87;71.55;101577.83;1761462;79;21131;-41
2020/12/17 02:36:33;;;;;;;11.33;8.53;;;;;;;3.87;71.59;101568.14;1765307;80;21141;-42
2020/12/17 02:39:00;;;;;;;13.32;8.55;;;;;;;3.90;71.58;101565.91;1765974;80;21102;-39
2020/12/17 02:41:27;;;;;;;11.70;8.38;;;;;;;3.90;71.58;101558.86;1698001;82;21185;-39
2020/12/17 02:43:55;;;;;;;15.30;8.50;;;;;;;3.92;71.55;101561.48;1765682;79;21589;-41
2020/12/17 02:46:23;;;;;;;10.60;7.20;;;;;;;3.95;71.53;101565.39;1764399;79;21114;-40
2020/12/17 02:48:54;;;;;;;11.70;6.95;;;;;;;3.96;71.50;101568.48;1766934;79;21579;-41
2020/12/17 02:51:21;;;;;;;10.88;6.92;;;;;;;3.97;71.46;101566.25;1762835;80;21127;-40
2020/12/17 02:53:49;;;;;;;10.55;6.40;;;;;;;3.98;71.37;101568.44;1694188;82;21171;-40
2020/12/17 02:56:17;;;;;;;9.25;6.40;;;;;;;3.98;71.29;101571.08;1762781;80;21134;-41
2020/12/17 02:58:44;;;;;;;10.95;6.42;;;;;;;3.95;71.28;101574.63;1766663;79;21660;-44
2020/12/17 03:01:12;;;;;;;11.43;7.12;;;;;;;3.92;71.36;101575.13;1762889;80;21119;-40
2020/12/17 03:03:40;;;;;;;12.30;7.33;;;;;;;3.90;71.45;101571.19;1767218;80;21148;-40
2020/12/17 03:06:07;;;;;;;10.98;6.78;;;;;;;3.92;71.46;101569.41;1768802;80;21138;-41
2020/12/17 03:08:34;;;;;;;10.93;6.92;;;;;;;3.95;71.44;101579.05;1762051;79;21138;-40
2020/12/17 03:11:02;;;;;;;9.08;6.50;;;;;;;3.96;71.36;101583.45;1764644;80;21141;-38
2020/12/17 03:13:29;;;;;;;8.95;5.78;;;;;;;3.95;71.33;101586.96;1766552;79;21881;-38
2020/12/17 03:15:57;;;;;;;9.50;5.72;;;;;;;3.96;71.33;101588.73;1724793;82;21581;-38
2020/12/17 03:18:25;;;;;;;9.93;6.25;;;;;;;3.98;71.26;101589.55;1695222;82;21174;-40
2020/12/17 03:20:52;;;;;;;9.63;5.95;;;;;;;3.97;71.25;101588.69;1702968;83;21170;-42
2020/12/17 03:23:19;;;;;;;9.68;4.92;;;;;;;3.97;71.24;101593.97;1699968;83;21177;-40
2020/12/17 03:25:47;;;;;;;7.85;6.08;;;;;;;4.00;71.21;101595.69;1698680;83;21921;-42
2020/12/17 03:28:15;;;;;;;9.55;6.58;;;;;;;4.00;71.16;101593.91;1725078;81;21131;-39
2020/12/17 03:30:43;;;;;;;8.30;5.33;;;;;;;4.00;71.16;101599.20;1764956;80;21141;-41
2020/12/17 03:33:12;;;;;;;8.85;5.53;;;;;;;3.99;71.11;101597.47;1765469;81;21382;-41
2020/12/17 03:35:39;;;;;;;8.08;5.35;;;;;;;3.96;71.17;101601.47;1688857;83;21154;-38
2020/12/17 03:38:07;;;;;;;7.72;5.65;;;;;;;3.97;71.20;101603.20;1759373;81;21150;-40
2020/12/17 03:40:34;;;;;;;8.40;6.20;;;;;;;3.98;71.20;101606.29;1761597;80;21149;-42
2020/12/17 03:43:02;;;;;;;8.65;5.10;;;;;;;3.98;71.18;101610.25;1763099;81;21138;-43
2020/12/17 03:45:29;;;;;;;8.13;5.62;;;;;;;3.99;71.23;101610.66;1761891;80;21113;-42
2020/12/17 03:47:57;;;;;;;8.83;5.47;;;;;;;4.00;71.21;101607.57;1765052;81;21158;-39
2020/12/17 03:50:24;;;;;;;7.97;4.97;;;;;;;4.02;71.21;101612.39;1762796;80;21621;-39
2020/12/17 03:52:52;;;;;;;11.95;7.03;;;;;;;4.04;71.22;101614.56;1765196;81;21307;-41
2020/12/17 03:55:19;;;;;;;11.80;7.92;;;;;;;4.03;71.23;101610.16;1761333;81;21187;-47
2020/12/17 03:57:47;;;;;;;12.78;7.85;;;;;;;4.04;71.25;101612.80;1763981;81;21303;-42
2020/12/17 04:00:15;;;;;;;14.63;8.30;;;;;;;4.06;71.27;101618.06;1761079;81;21150;-42
2020/12/17 04:02:42;;;;;;;9.35;6.87;;;;;;;4.07;71.18;101622.44;1763754;81;21138;-40
2020/12/17 04:05:10;;;;;;;8.88;6.05;;;;;;;4.08;71.17;101622.43;1766723;81;21629;-39
2020/12/17 04:07:37;;;;;;;8.38;5.80;;;;;;;4.08;71.14;101614.93;1761283;81;21627;-42
2020/12/17 04:10:05;;;;;;;8.28;5.72;;;;;;;4.08;71.12;101618.47;1767532;80;21161;-39
2020/12/17 04:12:33;;;;;;;7.03;5.72;;;;;;;4.06;71.21;101615.42;1767102;81;21161;-39
2020/12/17 04:15:00;;;;;;;13.08;7.35;;;;;;;4.05;71.26;101615.84;1760140;81;21976;-40
2020/12/17 04:17:28;;;;;;;8.75;5.45;;;;;;;4.04;71.31;101616.75;1763114;81;21142;-39
2020/12/17 04:19:55;;;;;;;8.85;5.65;;;;;;;4.04;71.34;101622.03;1764076;80;21516;-40
2020/12/17 04:22:23;;;;;;;8.38;5.37;;;;;;;4.02;71.37;101621.17;1762697;81;21157;-39
2020/12/17 04:24:50;;;;;;;11.43;7.33;;;;;;;4.01;71.45;101623.86;1763686;80;21125;-42
2020/12/17 04:27:18;;;;;;;9.00;6.58;;;;;;;4.00;71.50;101620.77;1772502;80;21161;-40
2020/12/17 04:29:45;;;;;;;9.83;6.53;;;;;;;4.00;71.57;101619.00;1774438;79;21138;-39
2020/12/17 04:32:13;;;;;;;10.82;6.35;;;;;;;4.00;71.58;101626.05;1774738;80;21168;-39
2020/12/17 04:34:41;;;;;;;14.68;9.48;;;;;;;3.99;71.60;101624.31;1777545;79;21142;-41
2020/12/17 04:37:08;;;;;;;10.80;7.70;;;;;;;3.97;71.69;101625.64;1774199;80;21169;-39
2020/12/17 04:39:36;;;;;;;10.58;7.08;;;;;;;3.98;71.77;101624.77;1775378;79;21154;-39
2020/12/17 04:42:03;;;;;;;10.15;6.45;;;;;;;3.99;71.78;101629.14;1778067;80;21114;-49
2020/12/17 04:44:31;;;;;;;9.18;6.22;;;;;;;4.03;71.81;101628.22;1772422;79;21181;-40
2020/12/17 04:47:03;;;;;;;9.50;6.90;;;;;;;4.05;71.71;101624.22;1775699;79;21166;-39
2020/12/17 04:49:40;;;;;;;9.98;6.60;;;;;;;4.07;71.63;101631.22;1774669;79;21138;-39
2020/12/17 04:52:07;;;;;;;8.13;6.05;;;;;;;4.08;71.64;101634.73;1710851;82;21189;-43
2020/12/17 04:54:35;;;;;;;8.78;6.00;;;;;;;4.08;71.65;101631.67;1774474;79;21117;-41
2020/12/17 04:57:10;;;;;;;8.28;5.83;;;;;;;4.09;71.65;101629.44;1773813;80;21106;-39
2020/12/17 04:59:50;;;;;;;11.60;6.10;;;;;;;4.09;71.64;101628.12;1773440;79;21129;-42
2020/12/17 05:02:21;;;;;;;8.95;6.20;;;;;;;4.09;71.64;101628.12;1774043;79;21586;-41
2020/12/17 05:04:50;;;;;;;9.48;6.47;;;;;;;4.08;71.65;101634.31;1775790;79;21169;-40
2020/12/17 05:07:20;;;;;;;9.18;6.35;;;;;;;4.07;71.70;101627.27;1711159;82;21177;-42
2020/12/17 05:09:50;;;;;;;9.50;7.08;;;;;;;4.07;71.75;101628.58;1774416;79;21173;-41
2020/12/17 05:12:17;;;;;;;10.45;6.35;;;;;;;4.05;71.78;101629.05;1775748;80;21149;-41
2020/12/17 05:14:45;;;;;;;9.25;6.08;;;;;;;4.05;71.82;101630.36;1774695;79;21127;-42
2020/12/17 05:17:13;;;;;;;9.40;6.30;;;;;;;4.06;71.88;101629.48;1770829;80;21869;-42
2020/12/17 05:19:42;;;;;;;10.70;7.55;;;;;;;4.07;71.93;101632.55;1773041;80;21992;-39
2020/12/17 05:24:48;;;;;;;11.25;7.37;;;;;;;4.15;71.91;101633.76;1794405;77;22715;-40
2020/12/17 05:27:15;;;;;;;11.57;7.92;;;;;;;4.10;71.84;101636.45;1779720;78;21184;-39
2020/12/17 05:29:43;;;;;;;13.03;9.13;;;;;;;4.10;71.80;101633.81;1774131;78;21593;-39
2020/12/17 05:32:11;;;;;;;11.73;8.10;;;;;;;4.11;71.81;101638.67;1771406;78;21113;-41
2020/12/17 05:34:39;;;;;;;16.23;10.90;;;;;;;4.09;71.78;101638.69;1773684;78;21133;-39
2020/12/17 05:37:07;;;;;;;15.28;11.08;;;;;;;4.09;71.83;101640.00;1770992;78;21530;-40
2020/12/17 05:39:36;;;;;;;20.75;13.93;;;;;;;4.12;71.87;101640.41;1717291;81;21172;-42
2020/12/17 05:42:04;;;;;;;27.80;18.07;;;;;;;4.14;71.82;101639.08;1687115;83;21571;-41
2020/12/17 05:44:31;;;;;;;28.10;17.37;;;;;;;4.16;71.79;101640.80;1700094;81;21122;-41
2020/12/17 05:46:59;;;;;;;23.50;14.53;;;;;;;4.19;71.74;101646.03;1746235;80;21543;-40
2020/12/17 05:49:29;;;;;;;20.68;13.78;;;;;;;4.21;71.70;101644.67;1744375;80;21582;-40
2020/12/17 05:52:17;;;;;;;20.12;13.45;;;;;;;4.23;71.67;101650.81;1740040;81;21152;-42
2020/12/17 05:55:02;;;;;;;15.25;11.80;;;;;;;4.22;71.61;101651.27;1738429;80;21123;-40
2020/12/17 05:57:30;;;;;;;20.10;12.53;;;;;;;4.21;71.57;101654.81;1722733;81;21141;-42
2020/12/17 06:00:01;;;;;;;16.15;11.15;;;;;;;4.22;71.58;101663.16;1697762;82;21157;-45
2020/12/17 06:02:32;;;;;;;16.40;9.90;;;;;;;4.20;71.56;101666.25;1725132;81;21141;-42
2020/12/17 06:05:10;;;;;;;16.27;11.78;;;;;;;4.19;71.57;101665.84;1726165;81;21141;-41
2020/12/17 06:07:48;;;;;;;16.95;13.18;;;;;;;4.19;71.54;101662.34;1721576;82;21154;-40
2020/12/17 06:10:23;;;;;;;22.82;16.00;;;;;;;4.18;71.56;101663.21;1720054;82;22243;-41
2020/12/17 06:12:59;;;;;;;24.92;17.90;;;;;;;4.17;71.61;101669.40;1723839;82;21114;-42
2020/12/17 06:15:28;;;;;;;27.77;18.35;;;;;;;4.17;71.60;101668.08;1724161;81;21109;-42
2020/12/17 06:17:57;;;;;;;24.02;16.17;;;;;;;4.17;71.66;101674.67;1726289;81;21169;-41
2020/12/17 06:20:30;;;;;;;25.35;17.57;;;;;;;4.16;71.67;101673.81;1724170;81;21125;-40
2020/12/17 06:23:00;;;;;;;25.92;15.75;;;;;;;4.16;71.73;101678.19;1721266;81;21152;-41
2020/12/17 06:25:30;;;;;;;26.23;16.30;;;;;;;4.16;71.72;101671.17;1710828;82;21162;-41
2020/12/17 06:27:58;;;;;;;23.57;14.95;;;;;;;4.17;71.72;101679.50;1708567;83;21157;-43
2020/12/17 06:30:32;;;;;;;19.07;14.07;;;;;;;4.18;71.71;101683.88;1711102;83;21142;-40
2020/12/17 06:33:01;;;;;;;14.05;10.48;;;;;;;4.18;71.64;101685.20;1710410;82;21134;-48
2020/12/17 06:35:43;;;;;;;13.95;9.88;;;;;;;4.17;71.62;101690.06;1712563;82;21498;-42
2020/12/17 06:38:15;;;;;;;17.12;10.32;;;;;;;4.13;71.67;101687.03;1706246;82;21563;-51
2020/12/17 06:40:42;;;;;;;14.53;8.78;;;;;;;4.12;71.78;101691.89;1708011;82;21143;-40
2020/12/17 06:43:14;;;;;;;15.55;9.40;;;;;;;4.12;71.80;101690.13;1749881;80;21158;-43
2020/12/17 06:45:43;;;;;;;13.90;9.68;;;;;;;4.15;71.81;101694.94;1741696;80;21127;-40
2020/12/17 06:48:38;;;;;;;14.55;9.23;;;;;;;4.16;71.78;101693.61;1749851;80;21130;-42
2020/12/17 06:51:28;;;;;;;12.80;8.53;;;;;;;4.19;71.75;101696.66;1749333;80;21149;-39
2020/12/17 06:54:07;;;;;;;12.75;8.93;;;;;;;4.25;71.79;101693.92;1796039;77;23361;-40
2020/12/17 06:59:31;;;;;;;14.85;10.13;;;;;;;4.29;71.83;101698.29;1789268;78;22882;-39
2020/12/17 07:01:58;;;;;;;15.88;9.90;;;;;;;4.28;71.80;101709.73;1757234;80;21270;-42
2020/12/17 07:04:43;;;;;;;16.25;10.80;;;;;;;4.30;71.75;101701.34;1738594;80;21177;-40
2020/12/17 07:07:17;;;;;;;14.10;9.95;;;;;;;4.31;71.71;101700.02;1736118;81;21201;-40
2020/12/17 07:09:47;;;;;;;12.93;9.53;;;;;;;4.32;71.70;101699.11;1714747;82;21568;-39
2020/12/17 07:12:39;;;;;;;13.53;9.83;;;;;;;4.33;71.68;101698.65;1719493;82;21612;-38
2020/12/17 07:15:35;;;;;;;17.75;13.68;;;;;;;4.34;71.69;101703.06;1712112;82;21152;-42
2020/12/17 07:18:25;;;;;;;19.65;14.00;;;;;;;4.36;71.65;101705.66;1689379;83;21490;-43
2020/12/17 07:21:07;;;;;;;17.17;10.93;;;;;;;4.36;71.65;101710.94;1670373;84;21192;-41
2020/12/17 07:23:42;;;;;;;19.23;13.78;;;;;;;4.40;71.63;101699.45;1794207;77;23312;-42
2020/12/17 07:26:12;;;;;;;18.00;12.23;;;;;;;4.38;71.61;101707.84;1770681;78;21483;-40
2020/12/17 07:28:41;;;;;;;20.30;12.73;;;;;;;4.38;71.54;101719.27;1773169;78;21120;-43
2020/12/17 07:31:08;;;;;;;19.07;12.45;;;;;;;4.37;71.47;101721.50;1775017;78;21157;-43
2020/12/17 07:33:42;;;;;;;18.27;12.53;;;;;;;4.34;71.46;101719.77;1777923;79;21845;-39
2020/12/17 07:36:11;;;;;;;22.35;11.55;;;;;;;4.32;71.44;101716.73;1772983;78;21146;-39
2020/12/17 07:38:39;;;;;;;17.05;11.40;;;;;;;4.29;71.53;101718.09;1774307;78;21427;-42
2020/12/17 07:41:25;;;;;;;19.80;13.03;;;;;;;4.25;71.66;101721.20;1778002;78;21644;-40
2020/12/17 07:43:53;;;;;;;15.40;11.78;;;;;;;4.27;71.66;101726.02;1773559;78;21109;-41
2020/12/17 07:46:54;;;;;;;19.65;13.48;;;;;;;4.27;71.68;101728.66;1779930;78;21577;-41
2020/12/17 07:49:22;;;;;;;15.72;11.33;;;;;;;4.29;71.78;101731.30;1700339;82;22033;-40
2020/12/17 07:51:50;;;;;;;17.02;11.48;;;;;;;4.30;71.77;101726.43;1698104;82;21165;-50
2020/12/17 07:54:23;;;;;;;16.82;11.33;;;;;;;4.34;71.81;101732.11;1761964;78;23129;-40
2020/12/17 07:56:59;;;;;;;18.10;10.78;;;;;;;4.31;71.81;101733.48;1717022;80;21168;-42
2020/12/17 07:59:27;;;;;;;15.25;12.35;;;;;;;4.32;71.84;101737.41;1709335;82;21153;-40
2020/12/17 08:02:03;;;;;;;19.30;13.78;;;;;;;4.30;71.79;101744.47;1709907;82;21133;-40
2020/12/17 08:04:30;;;;;;;17.40;12.73;;;;;;;4.22;71.74;101734.91;1709359;82;21141;-42
2020/12/17 08:07:01;;;;;;;17.77;13.05;;;;;;;4.11;71.97;101736.36;1710870;82;21180;-42
2020/12/17 08:09:29;;;;;;;18.07;12.60;;;;;;;4.11;72.18;101734.59;1682727;83;21145;-41
2020/12/17 08:11:56;;;;;;;17.70;11.90;;;;;;;4.16;72.26;101734.95;1684227;83;21120;-40
2020/12/17 08:14:24;;;;;;;15.98;11.88;;;;;;;4.15;72.19;101730.58;1710385;82;21159;-41
2020/12/17 08:16:54;;;;;;;18.02;12.05;;;;;;;4.17;72.28;101731.45;1711921;82;21109;-40
2020/12/17 08:19:22;;;;;;;13.28;10.82;;;;;;;4.19;72.35;101736.27;1707979;82;21122;-40
2020/12/17 08:21:49;;;;;;;14.58;10.13;;;;;;;4.23;72.39;101734.00;1712130;82;21298;-41
2020/12/17 08:24:17;;;;;;;11.78;8.75;;;;;;;4.26;72.49;101739.27;1708741;82;21153;-45
2020/12/17 08:26:44;;;;;;;13.83;9.95;;;;;;;4.31;72.52;101740.08;1709892;82;21114;-44
2020/12/17 08:29:12;;;;;;;16.00;10.80;;;;;;;4.34;72.35;101741.36;1710662;82;21185;-42
2020/12/17 08:31:39;;;;;;;15.85;11.18;;;;;;;4.37;72.36;101745.73;1683293;82;21172;-47
2020/12/17 08:34:07;;;;;;;17.48;11.90;;;;;;;4.39;72.33;101746.13;1713636;82;21155;-48
2020/12/17 08:36:37;;;;;;;15.18;11.48;;;;;;;4.40;72.23;101742.58;1664885;82;21660;-40
2020/12/17 08:39:08;;;;;;;14.85;11.97;;;;;;;4.41;72.25;101744.77;1712423;82;21919;-42
2020/12/17 08:41:40;;;;;;;18.90;12.25;;;;;;;4.43;72.19;101746.50;1707526;82;21114;-42
2020/12/17 08:44:09;;;;;;;16.97;13.22;;;;;;;4.46;72.15;101745.59;1713171;82;21578;-41
2020/12/17 08:46:39;;;;;;;15.28;11.75;;;;;;;4.47;72.00;101744.71;1710464;82;21109;-42
2020/12/17 08:49:08;;;;;;;17.62;13.78;;;;;;;4.51;72.00;101749.03;1683264;83;21430;-41
2020/12/17 08:51:36;;;;;;;22.22;16.90;;;;;;;4.54;71.99;101746.38;1714325;82;21146;-41
2020/12/17 08:54:04;;;;;;;22.95;16.27;;;;;;;4.54;71.95;101755.17;1715344;82;21193;-39
2020/12/17 08:56:33;;;;;;;25.15;16.62;;;;;;;4.54;71.92;101751.21;1647831;85;21671;-40
2020/12/17 08:59:04;;;;;;;24.37;16.30;;;;;;;4.53;71.83;101752.54;1712733;82;21176;-39
2020/12/17 09:01:35;;;;;;;27.17;18.82;;;;;;;4.54;71.81;101750.34;1712882;82;21170;-42
2020/12/17 09:04:07;;;;;;;31.25;21.20;;;;;;;4.54;71.73;101751.21;1714220;82;21150;-38
2020/12/17 09:06:35;;;;;;;30.88;20.90;;;;;;;4.52;71.71;101752.99;1711211;82;21161;-39
2020/12/17 09:09:15;;;;;;;38.15;24.65;;;;;;;4.53;71.71;101755.18;1712112;83;21856;-38
2020/12/17 09:11:46;;;;;;;33.50;21.37;;;;;;;4.53;71.79;101753.86;1700589;83;21141;-42
2020/12/17 09:14:19;;;;;;;;;;;;;;;4.53;71.81;101753.86;1715965;82;22316;-39
2020/12/17 09:16:43;;;;;;;28.42;19.50;;;;;;;4.53;71.79;101751.22;1713066;82;20786;-39
2020/12/17 09:19:11;;;;;;;28.10;19.92;;;;;;;4.52;71.85;101752.13;1712192;82;21161;-41
2020/12/17 09:22:00;;;;;;;28.32;20.50;;;;;;;4.52;71.99;101751.67;1714350;82;21687;-39
2020/12/17 09:24:33;;;;;;;28.20;19.98;;;;;;;4.53;71.93;101745.48;1717853;82;21141;-38
2020/12/17 09:27:21;;;;;;;27.77;18.65;;;;;;;4.54;71.88;101746.38;1710289;82;21172;-42
2020/12/17 09:30:08;;;;;;;27.87;17.98;;;;;;;4.59;71.78;101750.28;1717003;82;21140;-42
2020/12/17 09:32:42;;;;;;;28.90;19.82;;;;;;;4.60;71.61;101748.05;1713552;82;21156;-42
2020/12/17 09:35:14;;;;;;;29.07;19.67;;;;;;;4.60;71.53;101744.96;1713238;82;21153;-44
2020/12/17 09:37:44;;;;;;;27.70;18.67;;;;;;;4.62;71.52;101746.27;1712259;82;21163;-42
2020/12/17 09:40:12;;;;;;;25.77;15.90;;;;;;;4.64;71.49;101742.72;1710058;82;21157;-43
2020/12/17 09:42:39;;;;;;;19.70;15.28;;;;;;;4.65;71.49;101743.13;1686018;83;21122;-42
2020/12/17 09:45:16;;;;;;;20.37;15.48;;;;;;;4.65;71.49;101744.91;1713037;82;21791;-42
2020/12/17 09:47:44;;;;;;;19.82;14.25;;;;;;;4.67;71.49;101743.12;1710848;82;21140;-41
2020/12/17 09:50:15;;;;;;;23.55;15.93;;;;;;;4.67;71.50;101741.80;1713398;82;21114;-39
2020/12/17 09:52:43;;;;;;;21.93;14.98;;;;;;;4.66;71.39;101746.64;1711739;82;21185;-42
2020/12/17 09:55:13;;;;;;;18.50;13.98;;;;;;;4.65;71.28;101751.05;1711431;82;21477;-44
2020/12/17 09:57:43;;;;;;;19.52;14.10;;;;;;;4.65;71.28;101747.55;1711848;82;22142;-42
2020/12/17 10:00:12;;;;;;;;;;;;;;;4.63;71.37;101750.65;1715598;82;21636;-43
2020/12/17 10:02:43;;;;;;;21.27;13.78;;;;;;;4.62;71.15;101751.11;1715192;82;20307;-42
2020/12/17 10:05:12;;;;;;;22.70;15.48;;;;;;;4.62;71.12;101745.82;1712263;82;21142;-41
2020/12/17 10:07:46;;;;;;;20.82;14.93;;;;;;;4.61;71.24;101744.09;1712000;82;21182;-42
2020/12/17 10:10:14;;;;;;;19.62;14.95;;;;;;;4.61;71.21;101743.19;1714768;82;21633;-40
2020/12/17 10:12:42;;;;;;;25.12;16.32;;;;;;;4.60;71.20;101742.77;1712634;82;21324;-42
2020/12/17 10:15:10;;;;;;;21.85;16.05;;;;;;;4.60;71.22;101742.32;1710800;82;21133;-43
2020/12/17 10:17:37;;;;;;;22.27;15.20;;;;;;;4.61;71.18;101735.27;1709365;82;21137;-39
2020/12/17 10:20:06;;;;;;;25.88;15.15;;;;;;;4.61;71.16;101743.19;1713045;82;21153;-43
2020/12/17 10:22:36;;;;;;;22.60;14.90;;;;;;;4.61;71.04;101738.80;1714384;82;21152;-48
2020/12/17 10:25:04;;;;;;;23.32;14.80;;;;;;;4.58;71.10;101737.50;1711177;82;21153;-42
2020/12/17 10:27:33;;;;;;;18.95;13.60;;;;;;;4.59;71.17;101739.27;1712846;82;21189;-41
2020/12/17 10:30:00;;;;;;;20.17;14.78;;;;;;;4.60;71.06;101735.71;1710726;82;21122;-41
2020/12/17 10:32:28;;;;;;;20.40;14.43;;;;;;;4.63;71.05;101733.02;1712048;82;21153;-42
2020/12/17 10:34:55;;;;;;;22.62;14.95;;;;;;;4.65;70.97;101731.69;1711705;82;21355;-42
2020/12/17 10:37:26;;;;;;;19.52;14.98;;;;;;;4.66;70.91;101735.65;1711026;82;21149;-40
2020/12/17 10:39:54;;;;;;;20.72;15.80;;;;;;;4.68;70.79;101739.56;1710762;82;22002;-42
2020/12/17 10:42:22;;;;;;;22.22;15.50;;;;;;;4.67;70.81;101737.83;1707748;82;21126;-42
2020/12/17 10:44:50;;;;;;;21.07;16.07;;;;;;;4.66;70.81;101737.39;1714238;82;21149;-39
2020/12/17 10:47:18;;;;;;;23.22;17.50;;;;;;;4.65;70.93;101736.52;1718537;82;21865;-41
2020/12/17 10:49:46;;;;;;;24.98;18.17;;;;;;;4.64;70.85;101734.79;1710232;82;21163;-39
2020/12/17 10:52:14;;;;;;;26.42;18.80;;;;;;;4.64;70.79;101740.08;1719172;82;21160;-38
2020/12/17 10:54:42;;;;;;;24.92;18.32;;;;;;;4.64;70.80;101736.56;1705405;82;21641;-38
2020/12/17 10:57:09;;;;;;;26.82;18.30;;;;;;;4.62;70.70;101742.31;1699461;82;22264;-41
2020/12/17 10:59:37;;;;;;;20.45;15.90;;;;;;;4.59;70.93;101736.62;1700849;82;21183;-39
2020/12/17 11:02:04;;;;;;;21.07;15.15;;;;;;;4.60;71.06;101743.64;1697342;82;21154;-40
2020/12/17 11:04:31;;;;;;;26.20;15.78;;;;;;;4.63;70.88;101744.91;1705744;82;21180;-40
2020/12/17 11:06:59;;;;;;;25.20;14.75;;;;;;;4.65;70.80;101748.41;1702657;82;21688;-37
2020/12/17 11:09:29;;;;;;;21.45;15.28;;;;;;;4.66;70.81;101749.28;1701869;82;21193;-39
2020/12/17 11:11:56;;;;;;;22.82;16.00;;;;;;;4.67;70.79;101747.08;1714559;82;21157;-41
2020/12/17 11:14:24;;;;;;;24.23;17.40;;;;;;;4.67;70.79;101745.31;1703104;82;21202;-42
2020/12/17 11:16:52;;;;;;;25.52;16.15;;;;;;;4.68;70.84;101745.72;1704673;82;21296;-43
2020/12/17 11:19:19;;;;;;;26.00;17.12;;;;;;;4.69;71.02;101747.94;1709290;82;21194;-39
2020/12/17 11:21:47;;;;;;;24.82;17.57;;;;;;;4.69;70.99;101747.48;1704599;82;21153;-41
2020/12/17 11:24:14;;;;;;;23.57;16.97;;;;;;;4.69;70.91;101742.20;1706998;82;21162;-43
2020/12/17 11:26:45;;;;;;;26.33;18.70;;;;;;;4.67;70.87;101745.31;1710212;82;21164;-40
2020/12/17 11:29:13;;;;;;;;;;;;;;;4.70;70.73;101752.31;1702084;82;21167;-40
2020/12/17 11:31:45;;;;;;;26.60;17.05;;;;;;;4.68;70.66;101749.69;1699729;82;20157;-42
2020/12/17 11:34:13;;;;;;;24.77;17.02;;;;;;;4.68;70.48;101758.06;1705455;82;22009;-42
2020/12/17 11:36:43;;;;;;;23.83;16.00;;;;;;;4.61;70.56;101756.40;1711081;82;21127;-41
2020/12/17 11:39:12;;;;;;;20.15;14.60;;;;;;;4.58;70.88;101760.41;1643204;86;21184;-42
2020/12/17 11:41:41;;;;;;;26.73;16.10;;;;;;;4.61;70.98;101761.69;1702851;82;21146;-42